sensor_id;sensor_type;location;lat;lon;timestamp;P1;durP1;ratioP1;P2;durP2;ratioP2
75012;SDS011;63567;49.956;20.130;2022-11-04T00:01:19;10.50;;;6.23;;
75012;SDS011;63567;49.956;20.130;2022-11-04T00:03:45;10.18;;;5.95;;
75012;SDS011;63567;49.956;20.130;2022-11-04T00:06:10;10.53;;;6.40;;
75012;SDS011;63567;49.956;20.130;2022-11-04T00:08:36;10.15;;;6.22;;
75012;SDS011;63567;49.956;20.130;2022-11-04T00:11:01;8.98;;;5.97;;
75012;SDS011;63567;49.956;20.130;2022-11-04T00:13:45;9.98;;;5.88;;
75012;SDS011;63567;49.956;20.130;2022-11-04T00:16:11;9.23;;;5.40;;
75012;SDS011;63567;49.956;20.130;2022-11-04T00:18:56;9.75;;;5.32;;
75012;SDS011;63567;49.956;20.130;2022-11-04T00:21:21;9.38;;;5.45;;
75012;SDS011;63567;49.956;20.130;2022-11-04T00:24:05;9.98;;;5.13;;
75012;SDS011;63567;49.956;20.130;2022-11-04T00:26:51;9.70;;;5.13;;
75012;SDS011;63567;49.956;20.130;2022-11-04T00:29:34;9.55;;;5.38;;
75012;SDS011;63567;49.956;20.130;2022-11-04T00:32:00;10.40;;;5.57;;
75012;SDS011;63567;49.956;20.130;2022-11-04T00:34:43;9.00;;;5.45;;
75012;SDS011;63567;49.956;20.130;2022-11-04T00:37:09;9.07;;;5.03;;
75012;SDS011;63567;49.956;20.130;2022-11-04T00:39:34;7.67;;;4.77;;
75012;SDS011;63567;49.956;20.130;2022-11-04T00:41:59;8.13;;;5.13;;
75012;SDS011;63567;49.956;20.130;2022-11-04T00:44:25;9.50;;;4.50;;
75012;SDS011;63567;49.956;20.130;2022-11-04T00:46:50;7.67;;;4.90;;
75012;SDS011;63567;49.956;20.130;2022-11-04T00:49:15;8.30;;;4.87;;
75012;SDS011;63567;49.956;20.130;2022-11-04T00:51:40;7.93;;;4.93;;
75012;SDS011;63567;49.956;20.130;2022-11-04T00:54:06;10.37;;;5.30;;
75012;SDS011;63567;49.956;20.130;2022-11-04T00:56:31;9.40;;;4.67;;
75012;SDS011;63567;49.956;20.130;2022-11-04T00:58:59;8.70;;;4.83;;
75012;SDS011;63567;49.956;20.130;2022-11-04T01:01:24;7.53;;;4.80;;
75012;SDS011;63567;49.956;20.130;2022-11-04T01:03:51;9.00;;;4.90;;
75012;SDS011;63567;49.956;20.130;2022-11-04T01:06:17;10.65;;;5.15;;
75012;SDS011;63567;49.956;20.130;2022-11-04T01:08:44;7.70;;;4.43;;
75012;SDS011;63567;49.956;20.130;2022-11-04T01:11:11;9.82;;;4.93;;
75012;SDS011;63567;49.956;20.130;2022-11-04T01:13:37;9.95;;;5.20;;
75012;SDS011;63567;49.956;20.130;2022-11-04T01:16:04;8.05;;;5.50;;
75012;SDS011;63567;49.956;20.130;2022-11-04T01:18:32;8.98;;;5.05;;
75012;SDS011;63567;49.956;20.130;2022-11-04T01:21:01;9.50;;;5.82;;
75012;SDS011;63567;49.956;20.130;2022-11-04T01:23:27;7.43;;;4.70;;
75012;SDS011;63567;49.956;20.130;2022-11-04T01:25:53;9.13;;;4.78;;
75012;SDS011;63567;49.956;20.130;2022-11-04T01:28:18;8.40;;;4.18;;
75012;SDS011;63567;49.956;20.130;2022-11-04T01:30:43;8.57;;;4.70;;
75012;SDS011;63567;49.956;20.130;2022-11-04T01:33:08;8.73;;;4.47;;
75012;SDS011;63567;49.956;20.130;2022-11-04T01:35:34;7.47;;;4.30;;
75012;SDS011;63567;49.956;20.130;2022-11-04T01:37:59;7.17;;;4.40;;
75012;SDS011;63567;49.956;20.130;2022-11-04T01:40:24;8.13;;;3.90;;
75012;SDS011;63567;49.956;20.130;2022-11-04T01:42:50;8.25;;;4.38;;
75012;SDS011;63567;49.956;20.130;2022-11-04T01:45:16;7.40;;;4.17;;
75012;SDS011;63567;49.956;20.130;2022-11-04T01:47:43;7.70;;;4.22;;
75012;SDS011;63567;49.956;20.130;2022-11-04T01:50:21;8.65;;;5.10;;
75012;SDS011;63567;49.956;20.130;2022-11-04T01:53:03;9.25;;;4.47;;
75012;SDS011;63567;49.956;20.130;2022-11-04T01:55:32;6.70;;;3.90;;
75012;SDS011;63567;49.956;20.130;2022-11-04T01:58:09;8.85;;;5.10;;
75012;SDS011;63567;49.956;20.130;2022-11-04T02:00:39;9.15;;;4.38;;
75012;SDS011;63567;49.956;20.130;2022-11-04T02:03:08;7.15;;;4.18;;
75012;SDS011;63567;49.956;20.130;2022-11-04T02:05:37;8.20;;;3.72;;
75012;SDS011;63567;49.956;20.130;2022-11-04T02:08:03;8.18;;;4.45;;
75012;SDS011;63567;49.956;20.130;2022-11-04T02:10:31;8.90;;;4.70;;
75012;SDS011;63567;49.956;20.130;2022-11-04T02:12:58;8.68;;;4.30;;
75012;SDS011;63567;49.956;20.130;2022-11-04T02:18:05;7.85;;;4.20;;
75012;SDS011;63567;49.956;20.130;2022-11-04T02:20:59;6.80;;;3.88;;
75012;SDS011;63567;49.956;20.130;2022-11-04T02:23:35;7.15;;;4.28;;
75012;SDS011;63567;49.956;20.130;2022-11-04T02:37:46;6.80;;;3.88;;
75012;SDS011;63567;49.956;20.130;2022-11-04T02:45:49;6.95;;;3.92;;
75012;SDS011;63567;49.956;20.130;2022-11-04T02:48:29;7.57;;;3.80;;
75012;SDS011;63567;49.956;20.130;2022-11-04T02:51:06;7.88;;;4.00;;
75012;SDS011;63567;49.956;20.130;2022-11-04T02:56:23;7.22;;;3.83;;
75012;SDS011;63567;49.956;20.130;2022-11-04T02:58:54;7.70;;;3.97;;
75012;SDS011;63567;49.956;20.130;2022-11-04T03:01:24;6.45;;;3.75;;
75012;SDS011;63567;49.956;20.130;2022-11-04T03:03:55;8.40;;;4.47;;
75012;SDS011;63567;49.956;20.130;2022-11-04T03:06:26;8.13;;;4.10;;
75012;SDS011;63567;49.956;20.130;2022-11-04T03:08:54;6.75;;;4.32;;
75012;SDS011;63567;49.956;20.130;2022-11-04T03:11:22;7.90;;;4.15;;
75012;SDS011;63567;49.956;20.130;2022-11-04T03:13:52;8.45;;;4.00;;
75012;SDS011;63567;49.956;20.130;2022-11-04T03:16:24;7.47;;;4.32;;
75012;SDS011;63567;49.956;20.130;2022-11-04T03:18:59;6.65;;;3.75;;
75012;SDS011;63567;49.956;20.130;2022-11-04T03:21:26;7.63;;;3.75;;
75012;SDS011;63567;49.956;20.130;2022-11-04T03:23:55;7.15;;;3.80;;
75012;SDS011;63567;49.956;20.130;2022-11-04T03:26:27;6.50;;;4.03;;
75012;SDS011;63567;49.956;20.130;2022-11-04T03:29:13;7.55;;;4.03;;
75012;SDS011;63567;49.956;20.130;2022-11-04T03:31:48;7.63;;;4.07;;
75012;SDS011;63567;49.956;20.130;2022-11-04T03:34:33;9.40;;;4.80;;
75012;SDS011;63567;49.956;20.130;2022-11-04T03:36:59;9.35;;;4.80;;
75012;SDS011;63567;49.956;20.130;2022-11-04T03:39:25;8.98;;;4.30;;
75012;SDS011;63567;49.956;20.130;2022-11-04T03:41:54;7.68;;;4.30;;
75012;SDS011;63567;49.956;20.130;2022-11-04T03:44:22;7.63;;;4.53;;
75012;SDS011;63567;49.956;20.130;2022-11-04T03:46:48;6.15;;;3.78;;
75012;SDS011;63567;49.956;20.130;2022-11-04T03:49:15;6.63;;;4.03;;
75012;SDS011;63567;49.956;20.130;2022-11-04T03:51:41;7.07;;;3.80;;
75012;SDS011;63567;49.956;20.130;2022-11-04T03:54:06;7.23;;;3.90;;
75012;SDS011;63567;49.956;20.130;2022-11-04T04:05:05;7.35;;;3.72;;
75012;SDS011;63567;49.956;20.130;2022-11-04T04:07:38;7.25;;;4.45;;
75012;SDS011;63567;49.956;20.130;2022-11-04T04:10:22;7.50;;;3.97;;
75012;SDS011;63567;49.956;20.130;2022-11-04T04:13:08;6.40;;;3.25;;
75012;SDS011;63567;49.956;20.130;2022-11-04T04:15:53;9.10;;;3.70;;
75012;SDS011;63567;49.956;20.130;2022-11-04T04:18:35;6.10;;;3.72;;
75012;SDS011;63567;49.956;20.130;2022-11-04T04:21:07;7.40;;;3.30;;
75012;SDS011;63567;49.956;20.130;2022-11-04T04:23:37;6.28;;;3.35;;
75012;SDS011;63567;49.956;20.130;2022-11-04T04:26:24;6.82;;;4.00;;
75012;SDS011;63567;49.956;20.130;2022-11-04T04:29:08;6.90;;;3.75;;
75012;SDS011;63567;49.956;20.130;2022-11-04T04:31:35;7.32;;;3.22;;
75012;SDS011;63567;49.956;20.130;2022-11-04T04:34:18;7.10;;;3.38;;
75012;SDS011;63567;49.956;20.130;2022-11-04T04:36:50;7.15;;;3.65;;
75012;SDS011;63567;49.956;20.130;2022-11-04T04:39:21;7.38;;;3.42;;
75012;SDS011;63567;49.956;20.130;2022-11-04T04:42:07;7.55;;;3.38;;
75012;SDS011;63567;49.956;20.130;2022-11-04T04:44:51;7.68;;;3.92;;
75012;SDS011;63567;49.956;20.130;2022-11-04T04:47:31;8.30;;;3.80;;
75012;SDS011;63567;49.956;20.130;2022-11-04T04:50:00;6.32;;;3.75;;
75012;SDS011;63567;49.956;20.130;2022-11-04T04:52:27;7.07;;;4.05;;
75012;SDS011;63567;49.956;20.130;2022-11-04T04:54:55;7.63;;;4.43;;
75012;SDS011;63567;49.956;20.130;2022-11-04T04:57:20;7.18;;;3.75;;
75012;SDS011;63567;49.956;20.130;2022-11-04T04:59:46;7.53;;;4.07;;
75012;SDS011;63567;49.956;20.130;2022-11-04T05:02:11;6.50;;;3.57;;
75012;SDS011;63567;49.956;20.130;2022-11-04T05:04:36;5.93;;;3.57;;
75012;SDS011;63567;49.956;20.130;2022-11-04T05:07:02;8.23;;;3.70;;
75012;SDS011;63567;49.956;20.130;2022-11-04T05:09:27;7.03;;;3.65;;
75012;SDS011;63567;49.956;20.130;2022-11-04T05:11:52;6.30;;;3.70;;
75012;SDS011;63567;49.956;20.130;2022-11-04T05:14:18;6.73;;;3.67;;
75012;SDS011;63567;49.956;20.130;2022-11-04T05:16:43;5.90;;;3.33;;
75012;SDS011;63567;49.956;20.130;2022-11-04T05:19:09;6.25;;;3.70;;
75012;SDS011;63567;49.956;20.130;2022-11-04T05:21:34;9.37;;;3.77;;
75012;SDS011;63567;49.956;20.130;2022-11-04T05:23:59;7.83;;;3.90;;
75012;SDS011;63567;49.956;20.130;2022-11-04T05:26:25;7.03;;;3.87;;
75012;SDS011;63567;49.956;20.130;2022-11-04T05:28:50;4.97;;;2.90;;
75012;SDS011;63567;49.956;20.130;2022-11-04T05:31:15;7.83;;;3.23;;
75012;SDS011;63567;49.956;20.130;2022-11-04T05:33:40;6.27;;;3.30;;
75012;SDS011;63567;49.956;20.130;2022-11-04T05:36:06;6.80;;;3.40;;
75012;SDS011;63567;49.956;20.130;2022-11-04T05:38:33;6.25;;;3.30;;
75012;SDS011;63567;49.956;20.130;2022-11-04T05:40:58;8.95;;;4.18;;
75012;SDS011;63567;49.956;20.130;2022-11-04T05:43:24;7.87;;;3.30;;
75012;SDS011;63567;49.956;20.130;2022-11-04T05:45:49;7.27;;;3.90;;
75012;SDS011;63567;49.956;20.130;2022-11-04T05:48:14;8.50;;;3.50;;
75012;SDS011;63567;49.956;20.130;2022-11-04T05:50:40;7.80;;;3.78;;
75012;SDS011;63567;49.956;20.130;2022-11-04T05:53:06;6.65;;;3.60;;
75012;SDS011;63567;49.956;20.130;2022-11-04T05:55:31;9.32;;;3.80;;
75012;SDS011;63567;49.956;20.130;2022-11-04T05:57:57;8.30;;;4.07;;
75012;SDS011;63567;49.956;20.130;2022-11-04T06:00:23;5.72;;;3.28;;
75012;SDS011;63567;49.956;20.130;2022-11-04T06:02:49;8.32;;;3.72;;
75012;SDS011;63567;49.956;20.130;2022-11-04T06:05:14;9.73;;;4.20;;
75012;SDS011;63567;49.956;20.130;2022-11-04T06:07:39;7.60;;;3.70;;
75012;SDS011;63567;49.956;20.130;2022-11-04T06:10:05;6.57;;;4.10;;
75012;SDS011;63567;49.956;20.130;2022-11-04T06:12:30;8.40;;;3.97;;
75012;SDS011;63567;49.956;20.130;2022-11-04T06:14:56;6.28;;;3.10;;
75012;SDS011;63567;49.956;20.130;2022-11-04T06:17:21;7.37;;;3.60;;
75012;SDS011;63567;49.956;20.130;2022-11-04T06:19:47;5.93;;;3.17;;
75012;SDS011;63567;49.956;20.130;2022-11-04T06:22:13;6.05;;;3.55;;
75012;SDS011;63567;49.956;20.130;2022-11-04T06:24:40;6.35;;;3.22;;
75012;SDS011;63567;49.956;20.130;2022-11-04T06:27:06;6.18;;;3.25;;
75012;SDS011;63567;49.956;20.130;2022-11-04T06:29:32;6.75;;;3.30;;
75012;SDS011;63567;49.956;20.130;2022-11-04T06:31:57;7.33;;;3.60;;
75012;SDS011;63567;49.956;20.130;2022-11-04T06:34:23;6.88;;;3.00;;
75012;SDS011;63567;49.956;20.130;2022-11-04T06:36:48;6.97;;;3.40;;
75012;SDS011;63567;49.956;20.130;2022-11-04T06:39:14;7.97;;;3.85;;
75012;SDS011;63567;49.956;20.130;2022-11-04T06:41:40;8.00;;;3.85;;
75012;SDS011;63567;49.956;20.130;2022-11-04T06:44:05;5.90;;;3.05;;
75012;SDS011;63567;49.956;20.130;2022-11-04T06:48:56;5.73;;;3.13;;
75012;SDS011;63567;49.956;20.130;2022-11-04T06:51:21;5.93;;;3.35;;
75012;SDS011;63567;49.956;20.130;2022-11-04T06:53:47;7.15;;;3.17;;
75012;SDS011;63567;49.956;20.130;2022-11-04T06:56:12;5.53;;;3.47;;
75012;SDS011;63567;49.956;20.130;2022-11-04T06:58:38;5.95;;;3.33;;
75012;SDS011;63567;49.956;20.130;2022-11-04T07:01:03;8.93;;;3.77;;
75012;SDS011;63567;49.956;20.130;2022-11-04T07:03:28;6.07;;;3.30;;
75012;SDS011;63567;49.956;20.130;2022-11-04T07:05:54;6.40;;;3.20;;
75012;SDS011;63567;49.956;20.130;2022-11-04T07:08:19;6.55;;;3.58;;
75012;SDS011;63567;49.956;20.130;2022-11-04T07:10:44;6.27;;;3.30;;
75012;SDS011;63567;49.956;20.130;2022-11-04T07:13:10;6.20;;;3.43;;
75012;SDS011;63567;49.956;20.130;2022-11-04T07:15:36;8.60;;;3.80;;
75012;SDS011;63567;49.956;20.130;2022-11-04T07:20:31;7.10;;;3.17;;
75012;SDS011;63567;49.956;20.130;2022-11-04T07:22:57;6.35;;;3.00;;
75012;SDS011;63567;49.956;20.130;2022-11-04T07:25:22;5.70;;;3.43;;
75012;SDS011;63567;49.956;20.130;2022-11-04T07:27:48;7.20;;;3.37;;
75012;SDS011;63567;49.956;20.130;2022-11-04T07:30:13;7.70;;;3.10;;
75012;SDS011;63567;49.956;20.130;2022-11-04T07:32:38;7.00;;;3.43;;
75012;SDS011;63567;49.956;20.130;2022-11-04T07:35:04;5.73;;;3.17;;
75012;SDS011;63567;49.956;20.130;2022-11-04T07:37:29;8.40;;;3.58;;
75012;SDS011;63567;49.956;20.130;2022-11-04T07:39:55;6.57;;;3.33;;
75012;SDS011;63567;49.956;20.130;2022-11-04T07:42:20;6.47;;;3.83;;
75012;SDS011;63567;49.956;20.130;2022-11-04T07:44:46;6.43;;;3.60;;
75012;SDS011;63567;49.956;20.130;2022-11-04T07:47:11;5.88;;;3.15;;
75012;SDS011;63567;49.956;20.130;2022-11-04T07:49:36;6.07;;;3.43;;
75012;SDS011;63567;49.956;20.130;2022-11-04T07:52:02;7.47;;;3.30;;
75012;SDS011;63567;49.956;20.130;2022-11-04T07:54:27;6.22;;;3.60;;
75012;SDS011;63567;49.956;20.130;2022-11-04T07:56:52;7.73;;;3.60;;
75012;SDS011;63567;49.956;20.130;2022-11-04T07:59:18;6.47;;;3.75;;
75012;SDS011;63567;49.956;20.130;2022-11-04T08:01:43;6.73;;;3.60;;
75012;SDS011;63567;49.956;20.130;2022-11-04T08:04:09;6.03;;;3.40;;
75012;SDS011;63567;49.956;20.130;2022-11-04T08:06:35;4.75;;;2.95;;
75012;SDS011;63567;49.956;20.130;2022-11-04T08:09:00;6.43;;;3.38;;
75012;SDS011;63567;49.956;20.130;2022-11-04T08:11:26;6.70;;;3.60;;
75012;SDS011;63567;49.956;20.130;2022-11-04T08:13:52;6.60;;;3.55;;
75012;SDS011;63567;49.956;20.130;2022-11-04T08:16:19;6.20;;;3.60;;
75012;SDS011;63567;49.956;20.130;2022-11-04T08:18:46;6.85;;;3.78;;
75012;SDS011;63567;49.956;20.130;2022-11-04T08:21:12;7.85;;;3.40;;
75012;SDS011;63567;49.956;20.130;2022-11-04T08:23:38;6.82;;;3.83;;
75012;SDS011;63567;49.956;20.130;2022-11-04T08:26:07;5.93;;;3.80;;
75012;SDS011;63567;49.956;20.130;2022-11-04T08:28:35;6.55;;;3.65;;
75012;SDS011;63567;49.956;20.130;2022-11-04T08:31:02;9.82;;;4.00;;
75012;SDS011;63567;49.956;20.130;2022-11-04T08:33:30;5.95;;;3.58;;
75012;SDS011;63567;49.956;20.130;2022-11-04T08:35:58;7.18;;;3.65;;
75012;SDS011;63567;49.956;20.130;2022-11-04T08:38:25;6.07;;;3.63;;
75012;SDS011;63567;49.956;20.130;2022-11-04T08:40:50;6.67;;;3.97;;
75012;SDS011;63567;49.956;20.130;2022-11-04T08:43:16;7.97;;;4.00;;
75012;SDS011;63567;49.956;20.130;2022-11-04T08:45:45;11.15;;;4.53;;
75012;SDS011;63567;49.956;20.130;2022-11-04T08:48:11;7.47;;;3.90;;
75012;SDS011;63567;49.956;20.130;2022-11-04T08:50:37;7.93;;;3.65;;
75012;SDS011;63567;49.956;20.130;2022-11-04T08:53:04;7.28;;;4.43;;
75012;SDS011;63567;49.956;20.130;2022-11-04T08:55:30;7.43;;;4.18;;
75012;SDS011;63567;49.956;20.130;2022-11-04T08:57:56;6.57;;;4.20;;
75012;SDS011;63567;49.956;20.130;2022-11-04T09:00:21;7.10;;;4.27;;
75012;SDS011;63567;49.956;20.130;2022-11-04T09:02:47;6.57;;;4.40;;
75012;SDS011;63567;49.956;20.130;2022-11-04T09:05:12;9.93;;;5.13;;
75012;SDS011;63567;49.956;20.130;2022-11-04T09:07:39;10.43;;;6.45;;
75012;SDS011;63567;49.956;20.130;2022-11-04T09:10:05;9.00;;;6.15;;
75012;SDS011;63567;49.956;20.130;2022-11-04T09:12:31;10.38;;;7.05;;
75012;SDS011;63567;49.956;20.130;2022-11-04T09:14:56;9.97;;;6.67;;
75012;SDS011;63567;49.956;20.130;2022-11-04T09:17:21;9.30;;;8.37;;
75012;SDS011;63567;49.956;20.130;2022-11-04T09:19:47;11.40;;;7.32;;
75012;SDS011;63567;49.956;20.130;2022-11-04T09:22:13;11.02;;;8.35;;
75012;SDS011;63567;49.956;20.130;2022-11-04T09:24:38;10.17;;;7.30;;
75012;SDS011;63567;49.956;20.130;2022-11-04T09:27:04;10.80;;;8.97;;
75012;SDS011;63567;49.956;20.130;2022-11-04T09:29:30;9.38;;;7.82;;
75012;SDS011;63567;49.956;20.130;2022-11-04T09:32:07;11.02;;;8.52;;
75012;SDS011;63567;49.956;20.130;2022-11-04T09:34:33;10.65;;;7.95;;
75012;SDS011;63567;49.956;20.130;2022-11-04T09:36:59;8.77;;;7.68;;
75012;SDS011;63567;49.956;20.130;2022-11-04T09:39:24;8.68;;;7.43;;
75012;SDS011;63567;49.956;20.130;2022-11-04T09:41:54;10.73;;;7.07;;
75012;SDS011;63567;49.956;20.130;2022-11-04T09:47:15;9.48;;;8.00;;
75012;SDS011;63567;49.956;20.130;2022-11-04T09:49:42;8.48;;;6.43;;
75012;SDS011;63567;49.956;20.130;2022-11-04T09:52:17;7.75;;;6.03;;
75012;SDS011;63567;49.956;20.130;2022-11-04T09:55:11;8.82;;;6.40;;
75012;SDS011;63567;49.956;20.130;2022-11-04T09:57:44;7.63;;;6.55;;
75012;SDS011;63567;49.956;20.130;2022-11-04T10:00:16;7.75;;;6.20;;
75012;SDS011;63567;49.956;20.130;2022-11-04T10:02:49;10.85;;;6.55;;
75012;SDS011;63567;49.956;20.130;2022-11-04T10:05:33;8.75;;;6.55;;
75012;SDS011;63567;49.956;20.130;2022-11-04T10:10:58;7.93;;;6.72;;
75012;SDS011;63567;49.956;20.130;2022-11-04T10:16:26;7.32;;;6.57;;
75012;SDS011;63567;49.956;20.130;2022-11-04T10:19:21;8.15;;;6.68;;
75012;SDS011;63567;49.956;20.130;2022-11-04T10:21:56;7.45;;;6.75;;
75012;SDS011;63567;49.956;20.130;2022-11-04T10:24:46;6.95;;;5.90;;
75012;SDS011;63567;49.956;20.130;2022-11-04T10:27:26;7.53;;;6.72;;
75012;SDS011;63567;49.956;20.130;2022-11-04T10:30:15;7.43;;;6.03;;
75012;SDS011;63567;49.956;20.130;2022-11-04T10:32:53;7.10;;;6.18;;
75012;SDS011;63567;49.956;20.130;2022-11-04T10:35:30;8.32;;;6.53;;
75012;SDS011;63567;49.956;20.130;2022-11-04T10:40:53;9.52;;;8.70;;
75012;SDS011;63567;49.956;20.130;2022-11-04T10:46:17;11.82;;;10.85;;
75012;SDS011;63567;49.956;20.130;2022-11-04T10:51:49;13.43;;;12.30;;
75012;SDS011;63567;49.956;20.130;2022-11-04T10:54:14;16.50;;;15.20;;
75012;SDS011;63567;49.956;20.130;2022-11-04T10:56:41;12.82;;;11.73;;
75012;SDS011;63567;49.956;20.130;2022-11-04T10:59:25;10.77;;;9.75;;
75012;SDS011;63567;49.956;20.130;2022-11-04T11:01:52;8.90;;;8.20;;
75012;SDS011;63567;49.956;20.130;2022-11-04T11:04:38;8.93;;;8.02;;
75012;SDS011;63567;49.956;20.130;2022-11-04T11:07:09;8.50;;;7.70;;
75012;SDS011;63567;49.956;20.130;2022-11-04T11:12:06;8.75;;;7.88;;
75012;SDS011;63567;49.956;20.130;2022-11-04T11:14:44;8.95;;;8.07;;
75012;SDS011;63567;49.956;20.130;2022-11-04T11:19:53;8.35;;;6.72;;
75012;SDS011;63567;49.956;20.130;2022-11-04T11:23:01;7.57;;;6.57;;
75012;SDS011;63567;49.956;20.130;2022-11-04T11:38:36;8.95;;;8.05;;
75012;SDS011;63567;49.956;20.130;2022-11-04T11:41:06;10.48;;;8.93;;
75012;SDS011;63567;49.956;20.130;2022-11-04T11:43:35;8.90;;;8.00;;
75012;SDS011;63567;49.956;20.130;2022-11-04T11:46:03;13.25;;;10.55;;
75012;SDS011;63567;49.956;20.130;2022-11-04T11:48:38;14.27;;;10.50;;
75012;SDS011;63567;49.956;20.130;2022-11-04T11:51:05;11.32;;;9.13;;
75012;SDS011;63567;49.956;20.130;2022-11-04T11:53:31;10.02;;;7.70;;
75012;SDS011;63567;49.956;20.130;2022-11-04T11:56:06;7.97;;;6.75;;
75012;SDS011;63567;49.956;20.130;2022-11-04T12:03:48;8.98;;;5.85;;
75012;SDS011;63567;49.956;20.130;2022-11-04T12:06:23;6.70;;;5.70;;
75012;SDS011;63567;49.956;20.130;2022-11-04T12:12:00;7.82;;;6.22;;
75012;SDS011;63567;49.956;20.130;2022-11-04T12:20:27;9.75;;;8.85;;
75012;SDS011;63567;49.956;20.130;2022-11-04T12:34:22;9.48;;;6.00;;
75012;SDS011;63567;49.956;20.130;2022-11-04T12:37:17;7.57;;;5.82;;
75012;SDS011;63567;49.956;20.130;2022-11-04T12:45:45;6.80;;;5.70;;
75012;SDS011;63567;49.956;20.130;2022-11-04T12:54:28;10.48;;;5.63;;
75012;SDS011;63567;49.956;20.130;2022-11-04T13:00:20;7.97;;;5.80;;
75012;SDS011;63567;49.956;20.130;2022-11-04T13:03:02;8.07;;;5.57;;
75012;SDS011;63567;49.956;20.130;2022-11-04T13:05:46;9.30;;;5.85;;
75012;SDS011;63567;49.956;20.130;2022-11-04T13:08:27;8.23;;;5.60;;
75012;SDS011;63567;49.956;20.130;2022-11-04T13:11:03;9.02;;;5.68;;
75012;SDS011;63567;49.956;20.130;2022-11-04T13:13:52;8.55;;;6.18;;
75012;SDS011;63567;49.956;20.130;2022-11-04T13:16:26;9.95;;;5.70;;
75012;SDS011;63567;49.956;20.130;2022-11-04T13:18:52;9.75;;;6.53;;
75012;SDS011;63567;49.956;20.130;2022-11-04T13:21:22;10.30;;;7.10;;
75012;SDS011;63567;49.956;20.130;2022-11-04T13:26:54;13.68;;;9.45;;
75012;SDS011;63567;49.956;20.130;2022-11-04T13:29:24;13.07;;;8.52;;
75012;SDS011;63567;49.956;20.130;2022-11-04T13:31:52;12.90;;;8.95;;
75012;SDS011;63567;49.956;20.130;2022-11-04T13:39:45;12.45;;;7.38;;
75012;SDS011;63567;49.956;20.130;2022-11-04T13:44:45;10.90;;;7.20;;
75012;SDS011;63567;49.956;20.130;2022-11-04T13:47:14;9.63;;;6.88;;
75012;SDS011;63567;49.956;20.130;2022-11-04T13:49:46;10.68;;;6.65;;
75012;SDS011;63567;49.956;20.130;2022-11-04T13:52:13;12.02;;;7.30;;
75012;SDS011;63567;49.956;20.130;2022-11-04T13:54:58;11.93;;;7.40;;
75012;SDS011;63567;49.956;20.130;2022-11-04T13:57:30;11.52;;;7.28;;
75012;SDS011;63567;49.956;20.130;2022-11-04T14:18:38;14.07;;;7.90;;
75012;SDS011;63567;49.956;20.130;2022-11-04T14:23:32;17.85;;;9.15;;
75012;SDS011;63567;49.956;20.130;2022-11-04T14:26:03;18.95;;;10.02;;
75012;SDS011;63567;49.956;20.130;2022-11-04T14:28:31;14.80;;;8.68;;
75012;SDS011;63567;49.956;20.130;2022-11-04T14:30:58;16.30;;;9.18;;
75012;SDS011;63567;49.956;20.130;2022-11-04T14:36:15;15.05;;;9.10;;
75012;SDS011;63567;49.956;20.130;2022-11-04T14:38:41;15.82;;;8.07;;
75012;SDS011;63567;49.956;20.130;2022-11-04T14:41:21;14.35;;;7.93;;
75012;SDS011;63567;49.956;20.130;2022-11-04T14:43:53;11.63;;;7.22;;
75012;SDS011;63567;49.956;20.130;2022-11-04T14:46:21;13.25;;;6.90;;
75012;SDS011;63567;49.956;20.130;2022-11-04T14:48:52;15.98;;;8.85;;
75012;SDS011;63567;49.956;20.130;2022-11-04T14:51:21;28.38;;;13.98;;
75012;SDS011;63567;49.956;20.130;2022-11-04T14:53:53;31.42;;;16.10;;
75012;SDS011;63567;49.956;20.130;2022-11-04T14:56:26;29.13;;;15.38;;
75012;SDS011;63567;49.956;20.130;2022-11-04T14:59:02;26.30;;;14.03;;
75012;SDS011;63567;49.956;20.130;2022-11-04T15:01:33;28.02;;;14.18;;
75012;SDS011;63567;49.956;20.130;2022-11-04T15:04:12;24.13;;;13.35;;
75012;SDS011;63567;49.956;20.130;2022-11-04T15:06:38;25.42;;;13.85;;
75012;SDS011;63567;49.956;20.130;2022-11-04T15:09:16;29.88;;;16.08;;
75012;SDS011;63567;49.956;20.130;2022-11-04T15:11:44;31.35;;;16.40;;
75012;SDS011;63567;49.956;20.130;2022-11-04T15:14:28;39.75;;;18.73;;
75012;SDS011;63567;49.956;20.130;2022-11-04T15:16:54;30.67;;;17.50;;
75012;SDS011;63567;49.956;20.130;2022-11-04T15:19:31;21.40;;;13.35;;
75012;SDS011;63567;49.956;20.130;2022-11-04T15:21:58;19.05;;;12.95;;
75012;SDS011;63567;49.956;20.130;2022-11-04T15:24:25;24.17;;;13.40;;
75012;SDS011;63567;49.956;20.130;2022-11-04T15:26:51;32.17;;;17.00;;
75012;SDS011;63567;49.956;20.130;2022-11-04T15:29:19;25.20;;;14.38;;
75012;SDS011;63567;49.956;20.130;2022-11-04T15:31:55;29.48;;;15.50;;
75012;SDS011;63567;49.956;20.130;2022-11-04T15:34:22;24.90;;;15.20;;
75012;SDS011;63567;49.956;20.130;2022-11-04T15:36:50;27.15;;;14.65;;
75012;SDS011;63567;49.956;20.130;2022-11-04T15:39:19;23.48;;;14.32;;
75012;SDS011;63567;49.956;20.130;2022-11-04T15:41:51;24.63;;;14.23;;
75012;SDS011;63567;49.956;20.130;2022-11-04T15:44:43;77.43;;;38.50;;
75012;SDS011;63567;49.956;20.130;2022-11-04T15:49:42;51.67;;;26.15;;
75012;SDS011;63567;49.956;20.130;2022-11-04T15:52:10;105.38;;;44.80;;
75012;SDS011;63567;49.956;20.130;2022-11-04T15:54:40;82.95;;;36.30;;
75012;SDS011;63567;49.956;20.130;2022-11-04T15:57:15;47.08;;;22.45;;
75012;SDS011;63567;49.956;20.130;2022-11-04T15:59:51;29.90;;;17.95;;
75012;SDS011;63567;49.956;20.130;2022-11-04T16:02:26;29.35;;;16.95;;
75012;SDS011;63567;49.956;20.130;2022-11-04T16:05:03;33.47;;;17.80;;
75012;SDS011;63567;49.956;20.130;2022-11-04T16:07:44;27.55;;;16.38;;
75012;SDS011;63567;49.956;20.130;2022-11-04T16:10:21;33.78;;;17.92;;
75012;SDS011;63567;49.956;20.130;2022-11-04T16:12:54;32.80;;;19.17;;
75012;SDS011;63567;49.956;20.130;2022-11-04T16:18:04;29.33;;;15.75;;
75012;SDS011;63567;49.956;20.130;2022-11-04T16:20:31;27.05;;;16.92;;
75012;SDS011;63567;49.956;20.130;2022-11-04T16:22:59;27.30;;;16.80;;
75012;SDS011;63567;49.956;20.130;2022-11-04T16:25:27;26.42;;;15.57;;
75012;SDS011;63567;49.956;20.130;2022-11-04T16:27:56;24.50;;;14.82;;
75012;SDS011;63567;49.956;20.130;2022-11-04T16:30:22;27.65;;;16.23;;
75012;SDS011;63567;49.956;20.130;2022-11-04T16:32:52;22.77;;;13.95;;
75012;SDS011;63567;49.956;20.130;2022-11-04T16:35:23;29.15;;;16.63;;
75012;SDS011;63567;49.956;20.130;2022-11-04T16:37:50;29.13;;;16.58;;
75012;SDS011;63567;49.956;20.130;2022-11-04T16:40:17;23.67;;;14.23;;
75012;SDS011;63567;49.956;20.130;2022-11-04T16:42:44;22.73;;;14.80;;
75012;SDS011;63567;49.956;20.130;2022-11-04T16:50:24;21.10;;;13.00;;
75012;SDS011;63567;49.956;20.130;2022-11-04T16:52:50;47.85;;;20.98;;
75012;SDS011;63567;49.956;20.130;2022-11-04T16:55:15;29.92;;;15.77;;
75012;SDS011;63567;49.956;20.130;2022-11-04T16:57:41;25.10;;;14.27;;
75012;SDS011;63567;49.956;20.130;2022-11-04T17:00:20;24.70;;;14.30;;
75012;SDS011;63567;49.956;20.130;2022-11-04T17:02:46;22.25;;;13.43;;
75012;SDS011;63567;49.956;20.130;2022-11-04T17:05:13;24.40;;;14.13;;
75012;SDS011;63567;49.956;20.130;2022-11-04T17:07:39;20.42;;;12.48;;
75012;SDS011;63567;49.956;20.130;2022-11-04T17:10:04;21.50;;;13.52;;
75012;SDS011;63567;49.956;20.130;2022-11-04T17:12:39;23.02;;;13.25;;
75012;SDS011;63567;49.956;20.130;2022-11-04T17:15:05;25.90;;;16.67;;
75012;SDS011;63567;49.956;20.130;2022-11-04T17:17:30;36.00;;;19.00;;
75012;SDS011;63567;49.956;20.130;2022-11-04T17:19:56;36.17;;;21.63;;
75012;SDS011;63567;49.956;20.130;2022-11-04T17:22:21;25.13;;;14.87;;